sensor_id;sensor_type;location;lat;lon;timestamp;P1;durP1;ratioP1;P2;durP2;ratioP2
54428;SDS011;40337;52.978;6.310;2024-02-14T00:00:11;11.40;;;10.20;;
54428;SDS011;40337;52.978;6.310;2024-02-14T00:02:47;11.15;;;9.63;;
54428;SDS011;40337;52.978;6.310;2024-02-14T00:05:16;11.45;;;9.85;;
54428;SDS011;40337;52.978;6.310;2024-02-14T00:07:42;11.38;;;10.18;;
54428;SDS011;40337;52.978;6.310;2024-02-14T00:10:08;13.30;;;10.75;;
54428;SDS011;40337;52.978;6.310;2024-02-14T00:12:35;11.82;;;10.35;;
54428;SDS011;40337;52.978;6.310;2024-02-14T00:15:01;11.55;;;10.32;;
54428;SDS011;40337;52.978;6.310;2024-02-14T00:17:28;11.57;;;10.38;;
54428;SDS011;40337;52.978;6.310;2024-02-14T00:19:54;12.38;;;10.30;;
54428;SDS011;40337;52.978;6.310;2024-02-14T00:22:20;11.45;;;10.25;;
54428;SDS011;40337;52.978;6.310;2024-02-14T00:24:46;11.77;;;10.52;;
54428;SDS011;40337;52.978;6.310;2024-02-14T00:27:13;10.98;;;9.88;;
54428;SDS011;40337;52.978;6.310;2024-02-14T00:29:42;12.05;;;10.75;;
54428;SDS011;40337;52.978;6.310;2024-02-14T00:32:10;12.52;;;9.88;;
54428;SDS011;40337;52.978;6.310;2024-02-14T00:34:37;11.40;;;10.20;;
54428;SDS011;40337;52.978;6.310;2024-02-14T00:37:02;11.60;;;10.40;;
54428;SDS011;40337;52.978;6.310;2024-02-14T00:39:28;11.60;;;10.50;;
54428;SDS011;40337;52.978;6.310;2024-02-14T00:41:54;11.25;;;10.15;;
54428;SDS011;40337;52.978;6.310;2024-02-14T00:44:21;12.02;;;10.15;;
54428;SDS011;40337;52.978;6.310;2024-02-14T00:46:47;12.48;;;10.40;;
54428;SDS011;40337;52.978;6.310;2024-02-14T00:49:13;12.38;;;11.10;;
54428;SDS011;40337;52.978;6.310;2024-02-14T00:51:39;11.73;;;10.50;;
54428;SDS011;40337;52.978;6.310;2024-02-14T00:54:05;11.77;;;10.57;;
54428;SDS011;40337;52.978;6.310;2024-02-14T00:56:31;12.02;;;10.80;;
54428;SDS011;40337;52.978;6.310;2024-02-14T00:58:57;12.00;;;10.65;;
54428;SDS011;40337;52.978;6.310;2024-02-14T01:01:23;12.10;;;10.90;;
54428;SDS011;40337;52.978;6.310;2024-02-14T01:03:48;11.95;;;10.75;;
54428;SDS011;40337;52.978;6.310;2024-02-14T01:06:14;11.88;;;10.77;;
54428;SDS011;40337;52.978;6.310;2024-02-14T01:08:44;11.63;;;10.52;;
54428;SDS011;40337;52.978;6.310;2024-02-14T01:11:09;11.10;;;10.00;;
54428;SDS011;40337;52.978;6.310;2024-02-14T01:13:35;12.35;;;10.43;;
54428;SDS011;40337;52.978;6.310;2024-02-14T01:16:02;10.73;;;9.63;;
54428;SDS011;40337;52.978;6.310;2024-02-14T01:18:29;10.13;;;9.13;;
54428;SDS011;40337;52.978;6.310;2024-02-14T01:20:55;12.18;;;9.98;;
54428;SDS011;40337;52.978;6.310;2024-02-14T01:23:21;10.63;;;9.52;;
54428;SDS011;40337;52.978;6.310;2024-02-14T01:25:47;9.80;;;8.82;;
54428;SDS011;40337;52.978;6.310;2024-02-14T01:28:12;10.35;;;9.35;;
54428;SDS011;40337;52.978;6.310;2024-02-14T01:30:38;10.18;;;9.18;;
54428;SDS011;40337;52.978;6.310;2024-02-14T01:33:04;9.77;;;8.82;;
54428;SDS011;40337;52.978;6.310;2024-02-14T01:35:30;10.05;;;9.05;;
54428;SDS011;40337;52.978;6.310;2024-02-14T01:37:55;10.98;;;9.88;;
54428;SDS011;40337;52.978;6.310;2024-02-14T01:40:21;11.02;;;9.93;;
54428;SDS011;40337;52.978;6.310;2024-02-14T01:42:47;10.90;;;9.50;;
54428;SDS011;40337;52.978;6.310;2024-02-14T01:45:13;10.55;;;9.55;;
54428;SDS011;40337;52.978;6.310;2024-02-14T01:47:38;10.38;;;9.30;;
54428;SDS011;40337;52.978;6.310;2024-02-14T01:50:07;10.77;;;9.68;;
54428;SDS011;40337;52.978;6.310;2024-02-14T01:52:36;10.60;;;9.52;;
54428;SDS011;40337;52.978;6.310;2024-02-14T01:55:05;10.60;;;9.57;;
54428;SDS011;40337;52.978;6.310;2024-02-14T01:57:33;10.07;;;9.07;;
54428;SDS011;40337;52.978;6.310;2024-02-14T01:59:59;10.07;;;9.07;;
54428;SDS011;40337;52.978;6.310;2024-02-14T02:02:32;9.50;;;8.45;;
54428;SDS011;40337;52.978;6.310;2024-02-14T02:05:01;9.40;;;8.50;;
54428;SDS011;40337;52.978;6.310;2024-02-14T02:07:27;10.15;;;9.07;;
54428;SDS011;40337;52.978;6.310;2024-02-14T02:09:53;9.07;;;8.18;;
54428;SDS011;40337;52.978;6.310;2024-02-14T02:12:18;9.65;;;8.65;;
54428;SDS011;40337;52.978;6.310;2024-02-14T02:14:44;8.60;;;7.80;;
54428;SDS011;40337;52.978;6.310;2024-02-14T02:17:10;8.98;;;8.13;;
54428;SDS011;40337;52.978;6.310;2024-02-14T02:19:37;8.30;;;7.43;;
54428;SDS011;40337;52.978;6.310;2024-02-14T02:22:03;9.40;;;8.50;;
54428;SDS011;40337;52.978;6.310;2024-02-14T02:24:30;9.27;;;8.38;;
54428;SDS011;40337;52.978;6.310;2024-02-14T02:26:55;9.00;;;8.20;;
54428;SDS011;40337;52.978;6.310;2024-02-14T02:29:22;9.23;;;8.32;;
54428;SDS011;40337;52.978;6.310;2024-02-14T02:31:47;9.23;;;8.32;;
54428;SDS011;40337;52.978;6.310;2024-02-14T02:34:13;9.00;;;8.10;;
54428;SDS011;40337;52.978;6.310;2024-02-14T02:36:39;8.68;;;7.88;;
54428;SDS011;40337;52.978;6.310;2024-02-14T02:39:06;8.98;;;8.07;;
54428;SDS011;40337;52.978;6.310;2024-02-14T02:41:32;8.63;;;7.82;;
54428;SDS011;40337;52.978;6.310;2024-02-14T02:43:58;8.43;;;7.63;;
54428;SDS011;40337;52.978;6.310;2024-02-14T02:46:24;9.18;;;8.27;;
54428;SDS011;40337;52.978;6.310;2024-02-14T02:48:51;9.57;;;8.57;;
54428;SDS011;40337;52.978;6.310;2024-02-14T02:51:19;8.95;;;8.05;;
54428;SDS011;40337;52.978;6.310;2024-02-14T02:53:46;8.73;;;7.88;;
54428;SDS011;40337;52.978;6.310;2024-02-14T02:56:12;8.18;;;7.38;;
54428;SDS011;40337;52.978;6.310;2024-02-14T02:58:38;8.93;;;8.07;;
54428;SDS011;40337;52.978;6.310;2024-02-14T03:01:07;9.18;;;8.27;;
54428;SDS011;40337;52.978;6.310;2024-02-14T03:03:34;9.18;;;8.27;;
54428;SDS011;40337;52.978;6.310;2024-02-14T03:06:01;8.20;;;7.40;;
54428;SDS011;40337;52.978;6.310;2024-02-14T03:08:28;8.60;;;7.70;;
54428;SDS011;40337;52.978;6.310;2024-02-14T03:10:55;8.63;;;7.72;;
54428;SDS011;40337;52.978;6.310;2024-02-14T03:13:24;8.77;;;7.88;;
54428;SDS011;40337;52.978;6.310;2024-02-14T03:15:51;8.52;;;7.60;;
54428;SDS011;40337;52.978;6.310;2024-02-14T03:18:17;9.20;;;8.20;;
54428;SDS011;40337;52.978;6.310;2024-02-14T03:20:43;8.95;;;8.05;;
54428;SDS011;40337;52.978;6.310;2024-02-14T03:23:09;8.70;;;7.80;;
54428;SDS011;40337;52.978;6.310;2024-02-14T03:25:34;9.82;;;8.82;;
54428;SDS011;40337;52.978;6.310;2024-02-14T03:28:01;10.60;;;9.50;;
54428;SDS011;40337;52.978;6.310;2024-02-14T03:30:34;10.18;;;9.18;;
54428;SDS011;40337;52.978;6.310;2024-02-14T03:33:00;11.02;;;9.93;;
54428;SDS011;40337;52.978;6.310;2024-02-14T03:35:27;10.45;;;9.35;;
54428;SDS011;40337;52.978;6.310;2024-02-14T03:37:52;10.88;;;9.77;;
54428;SDS011;40337;52.978;6.310;2024-02-14T03:40:18;11.98;;;10.77;;
54428;SDS011;40337;52.978;6.310;2024-02-14T03:42:47;11.90;;;10.60;;
54428;SDS011;40337;52.978;6.310;2024-02-14T03:45:13;11.65;;;10.38;;
54428;SDS011;40337;52.978;6.310;2024-02-14T03:47:39;11.75;;;10.55;;
54428;SDS011;40337;52.978;6.310;2024-02-14T03:50:06;12.45;;;11.15;;
54428;SDS011;40337;52.978;6.310;2024-02-14T03:52:32;11.65;;;10.45;;
54428;SDS011;40337;52.978;6.310;2024-02-14T03:54:58;11.80;;;10.60;;
54428;SDS011;40337;52.978;6.310;2024-02-14T03:57:25;11.65;;;10.45;;
54428;SDS011;40337;52.978;6.310;2024-02-14T03:59:52;12.00;;;10.77;;
54428;SDS011;40337;52.978;6.310;2024-02-14T04:02:18;12.45;;;11.15;;
54428;SDS011;40337;52.978;6.310;2024-02-14T04:04:44;13.20;;;11.80;;
54428;SDS011;40337;52.978;6.310;2024-02-14T04:07:11;12.60;;;10.95;;
54428;SDS011;40337;52.978;6.310;2024-02-14T04:09:37;12.40;;;10.90;;
54428;SDS011;40337;52.978;6.310;2024-02-14T04:12:03;13.43;;;11.93;;
54428;SDS011;40337;52.978;6.310;2024-02-14T04:14:30;12.13;;;10.57;;
54428;SDS011;40337;52.978;6.310;2024-02-14T04:16:55;11.38;;;10.18;;
54428;SDS011;40337;52.978;6.310;2024-02-14T04:19:21;12.25;;;10.48;;
54428;SDS011;40337;52.978;6.310;2024-02-14T04:21:47;12.25;;;10.75;;
54428;SDS011;40337;52.978;6.310;2024-02-14T04:24:12;10.07;;;8.95;;
54428;SDS011;40337;52.978;6.310;2024-02-14T04:26:38;11.00;;;9.80;;
54428;SDS011;40337;52.978;6.310;2024-02-14T04:29:04;11.55;;;9.45;;
54428;SDS011;40337;52.978;6.310;2024-02-14T04:31:29;11.32;;;9.63;;
54428;SDS011;40337;52.978;6.310;2024-02-14T04:33:56;10.85;;;9.75;;
54428;SDS011;40337;52.978;6.310;2024-02-14T04:36:22;10.13;;;9.02;;
54428;SDS011;40337;52.978;6.310;2024-02-14T04:38:48;10.35;;;9.18;;
54428;SDS011;40337;52.978;6.310;2024-02-14T04:41:14;9.80;;;8.77;;
54428;SDS011;40337;52.978;6.310;2024-02-14T04:43:40;9.75;;;8.63;;
54428;SDS011;40337;52.978;6.310;2024-02-14T04:46:06;10.15;;;9.00;;
54428;SDS011;40337;52.978;6.310;2024-02-14T04:48:34;10.10;;;9.00;;
54428;SDS011;40337;52.978;6.310;2024-02-14T04:51:00;12.07;;;10.75;;
54428;SDS011;40337;52.978;6.310;2024-02-14T04:53:26;11.98;;;10.77;;
54428;SDS011;40337;52.978;6.310;2024-02-14T04:55:52;13.98;;;12.23;;
54428;SDS011;40337;52.978;6.310;2024-02-14T04:58:18;15.68;;;13.05;;
54428;SDS011;40337;52.978;6.310;2024-02-14T05:00:44;13.18;;;11.77;;
54428;SDS011;40337;52.978;6.310;2024-02-14T05:03:10;14.07;;;11.65;;
54428;SDS011;40337;52.978;6.310;2024-02-14T05:05:36;12.45;;;11.15;;
54428;SDS011;40337;52.978;6.310;2024-02-14T05:08:03;12.80;;;11.50;;
54428;SDS011;40337;52.978;6.310;2024-02-14T05:10:29;13.13;;;11.73;;
54428;SDS011;40337;52.978;6.310;2024-02-14T05:12:55;13.10;;;11.25;;
54428;SDS011;40337;52.978;6.310;2024-02-14T05:15:21;14.02;;;11.85;;
54428;SDS011;40337;52.978;6.310;2024-02-14T05:17:47;12.82;;;11.48;;
54428;SDS011;40337;52.978;6.310;2024-02-14T05:20:14;12.90;;;11.27;;
54428;SDS011;40337;52.978;6.310;2024-02-14T05:22:40;12.35;;;11.05;;
54428;SDS011;40337;52.978;6.310;2024-02-14T05:25:06;12.38;;;10.98;;
54428;SDS011;40337;52.978;6.310;2024-02-14T05:27:35;13.60;;;11.25;;
54428;SDS011;40337;52.978;6.310;2024-02-14T05:30:02;12.23;;;10.90;;
54428;SDS011;40337;52.978;6.310;2024-02-14T05:32:31;13.90;;;11.18;;
54428;SDS011;40337;52.978;6.310;2024-02-14T05:34:57;14.07;;;11.48;;
54428;SDS011;40337;52.978;6.310;2024-02-14T05:37:23;11.43;;;10.23;;
54428;SDS011;40337;52.978;6.310;2024-02-14T05:39:49;12.55;;;9.93;;
54428;SDS011;40337;52.978;6.310;2024-02-14T05:42:15;12.43;;;9.60;;
54428;SDS011;40337;52.978;6.310;2024-02-14T05:44:43;15.60;;;10.65;;
54428;SDS011;40337;52.978;6.310;2024-02-14T05:47:09;15.02;;;10.82;;
54428;SDS011;40337;52.978;6.310;2024-02-14T05:49:36;16.63;;;11.20;;
54428;SDS011;40337;52.978;6.310;2024-02-14T05:52:07;19.63;;;12.27;;
54428;SDS011;40337;52.978;6.310;2024-02-14T05:54:33;20.75;;;12.27;;
54428;SDS011;40337;52.978;6.310;2024-02-14T05:56:59;24.40;;;13.07;;
54428;SDS011;40337;52.978;6.310;2024-02-14T05:59:27;20.58;;;12.38;;
54428;SDS011;40337;52.978;6.310;2024-02-14T06:01:53;23.45;;;13.65;;
54428;SDS011;40337;52.978;6.310;2024-02-14T06:04:18;25.50;;;13.27;;
54428;SDS011;40337;52.978;6.310;2024-02-14T06:06:44;27.40;;;13.88;;
54428;SDS011;40337;52.978;6.310;2024-02-14T06:09:10;29.38;;;14.85;;
54428;SDS011;40337;52.978;6.310;2024-02-14T06:11:36;29.80;;;14.35;;
54428;SDS011;40337;52.978;6.310;2024-02-14T06:14:06;32.45;;;14.85;;
54428;SDS011;40337;52.978;6.310;2024-02-14T06:16:32;28.55;;;12.98;;
54428;SDS011;40337;52.978;6.310;2024-02-14T06:18:58;25.77;;;12.80;;
54428;SDS011;40337;52.978;6.310;2024-02-14T06:21:24;34.03;;;13.82;;
54428;SDS011;40337;52.978;6.310;2024-02-14T06:23:50;31.98;;;14.82;;
54428;SDS011;40337;52.978;6.310;2024-02-14T06:26:16;36.83;;;14.40;;
54428;SDS011;40337;52.978;6.310;2024-02-14T06:28:42;45.83;;;16.00;;
54428;SDS011;40337;52.978;6.310;2024-02-14T06:31:11;44.40;;;15.57;;
54428;SDS011;40337;52.978;6.310;2024-02-14T06:33:37;41.28;;;14.95;;
54428;SDS011;40337;52.978;6.310;2024-02-14T06:36:03;48.58;;;14.65;;
54428;SDS011;40337;52.978;6.310;2024-02-14T06:38:30;39.75;;;14.10;;
54428;SDS011;40337;52.978;6.310;2024-02-14T06:40:56;45.22;;;12.38;;
54428;SDS011;40337;52.978;6.310;2024-02-14T06:43:22;38.33;;;12.32;;
54428;SDS011;40337;52.978;6.310;2024-02-14T06:45:47;38.30;;;12.77;;
54428;SDS011;40337;52.978;6.310;2024-02-14T06:48:13;44.55;;;12.82;;
54428;SDS011;40337;52.978;6.310;2024-02-14T06:50:39;45.50;;;12.00;;
54428;SDS011;40337;52.978;6.310;2024-02-14T06:53:06;42.22;;;11.80;;
54428;SDS011;40337;52.978;6.310;2024-02-14T06:55:31;39.55;;;11.27;;
54428;SDS011;40337;52.978;6.310;2024-02-14T06:58:00;45.28;;;11.57;;
54428;SDS011;40337;52.978;6.310;2024-02-14T07:00:26;42.28;;;11.00;;
54428;SDS011;40337;52.978;6.310;2024-02-14T07:02:53;37.95;;;10.35;;
54428;SDS011;40337;52.978;6.310;2024-02-14T07:05:19;40.53;;;11.38;;
54428;SDS011;40337;52.978;6.310;2024-02-14T07:07:44;35.63;;;11.50;;
54428;SDS011;40337;52.978;6.310;2024-02-14T07:10:10;35.03;;;10.50;;
54428;SDS011;40337;52.978;6.310;2024-02-14T07:12:36;36.20;;;11.02;;
54428;SDS011;40337;52.978;6.310;2024-02-14T07:15:02;45.10;;;11.50;;
54428;SDS011;40337;52.978;6.310;2024-02-14T07:17:29;35.78;;;11.88;;
54428;SDS011;40337;52.978;6.310;2024-02-14T07:19:55;39.35;;;10.80;;
54428;SDS011;40337;52.978;6.310;2024-02-14T07:22:21;37.03;;;11.27;;
54428;SDS011;40337;52.978;6.310;2024-02-14T07:24:47;37.53;;;13.23;;
54428;SDS011;40337;52.978;6.310;2024-02-14T07:27:14;39.28;;;12.88;;
54428;SDS011;40337;52.978;6.310;2024-02-14T07:29:40;42.75;;;13.38;;
54428;SDS011;40337;52.978;6.310;2024-02-14T07:32:25;38.03;;;13.83;;
54428;SDS011;40337;52.978;6.310;2024-02-14T07:34:52;39.00;;;13.20;;
54428;SDS011;40337;52.978;6.310;2024-02-14T07:37:18;43.17;;;14.02;;
54428;SDS011;40337;52.978;6.310;2024-02-14T07:39:44;38.28;;;13.00;;
54428;SDS011;40337;52.978;6.310;2024-02-14T07:42:11;40.10;;;13.07;;
54428;SDS011;40337;52.978;6.310;2024-02-14T07:44:37;41.47;;;13.65;;
54428;SDS011;40337;52.978;6.310;2024-02-14T07:47:03;41.88;;;13.60;;
54428;SDS011;40337;52.978;6.310;2024-02-14T07:49:28;38.35;;;13.20;;
54428;SDS011;40337;52.978;6.310;2024-02-14T07:51:54;38.47;;;13.45;;
54428;SDS011;40337;52.978;6.310;2024-02-14T07:54:19;38.53;;;13.52;;
54428;SDS011;40337;52.978;6.310;2024-02-14T07:56:45;36.00;;;13.52;;
54428;SDS011;40337;52.978;6.310;2024-02-14T07:59:11;32.67;;;12.32;;
54428;SDS011;40337;52.978;6.310;2024-02-14T08:01:36;37.40;;;11.82;;
54428;SDS011;40337;52.978;6.310;2024-02-14T08:04:02;28.33;;;10.07;;
54428;SDS011;40337;52.978;6.310;2024-02-14T08:06:29;29.13;;;10.68;;
54428;SDS011;40337;52.978;6.310;2024-02-14T08:08:55;25.23;;;10.30;;
54428;SDS011;40337;52.978;6.310;2024-02-14T08:11:26;26.13;;;9.43;;
54428;SDS011;40337;52.978;6.310;2024-02-14T08:13:52;27.98;;;9.27;;
54428;SDS011;40337;52.978;6.310;2024-02-14T08:16:18;28.40;;;9.65;;
54428;SDS011;40337;52.978;6.310;2024-02-14T08:18:43;26.92;;;9.63;;
54428;SDS011;40337;52.978;6.310;2024-02-14T08:21:09;27.90;;;10.13;;
54428;SDS011;40337;52.978;6.310;2024-02-14T08:23:35;26.83;;;10.15;;
54428;SDS011;40337;52.978;6.310;2024-02-14T08:26:04;27.33;;;9.95;;
54428;SDS011;40337;52.978;6.310;2024-02-14T08:28:35;30.00;;;10.13;;
54428;SDS011;40337;52.978;6.310;2024-02-14T08:31:01;28.35;;;10.07;;
54428;SDS011;40337;52.978;6.310;2024-02-14T08:33:27;28.02;;;11.30;;
54428;SDS011;40337;52.978;6.310;2024-02-14T08:35:53;28.73;;;10.52;;
54428;SDS011;40337;52.978;6.310;2024-02-14T08:38:22;27.55;;;10.73;;
54428;SDS011;40337;52.978;6.310;2024-02-14T08:40:48;25.65;;;11.13;;
54428;SDS011;40337;52.978;6.310;2024-02-14T08:43:13;26.88;;;10.80;;
54428;SDS011;40337;52.978;6.310;2024-02-14T08:45:39;27.65;;;11.27;;
54428;SDS011;40337;52.978;6.310;2024-02-14T08:48:06;27.65;;;11.48;;
54428;SDS011;40337;52.978;6.310;2024-02-14T08:50:32;39.25;;;12.85;;
54428;SDS011;40337;52.978;6.310;2024-02-14T08:52:57;33.67;;;12.02;;
54428;SDS011;40337;52.978;6.310;2024-02-14T08:55:23;36.05;;;12.88;;
54428;SDS011;40337;52.978;6.310;2024-02-14T08:57:49;33.03;;;11.80;;
54428;SDS011;40337;52.978;6.310;2024-02-14T09:00:14;36.03;;;12.88;;
54428;SDS011;40337;52.978;6.310;2024-02-14T09:02:44;31.60;;;12.15;;
54428;SDS011;40337;52.978;6.310;2024-02-14T09:05:13;34.08;;;13.38;;
54428;SDS011;40337;52.978;6.310;2024-02-14T09:07:39;25.55;;;12.00;;
54428;SDS011;40337;52.978;6.310;2024-02-14T09:10:06;33.78;;;13.18;;
54428;SDS011;40337;52.978;6.310;2024-02-14T09:12:32;31.35;;;12.40;;
54428;SDS011;40337;52.978;6.310;2024-02-14T09:14:58;30.13;;;12.82;;
54428;SDS011;40337;52.978;6.310;2024-02-14T09:17:24;26.35;;;11.70;;
54428;SDS011;40337;52.978;6.310;2024-02-14T09:19:50;26.05;;;11.55;;
54428;SDS011;40337;52.978;6.310;2024-02-14T09:22:16;28.50;;;11.77;;
54428;SDS011;40337;52.978;6.310;2024-02-14T09:24:46;20.52;;;10.80;;
54428;SDS011;40337;52.978;6.310;2024-02-14T09:27:13;23.63;;;11.05;;
54428;SDS011;40337;52.978;6.310;2024-02-14T09:29:39;23.73;;;11.50;;
54428;SDS011;40337;52.978;6.310;2024-02-14T09:32:04;23.65;;;11.85;;
54428;SDS011;40337;52.978;6.310;2024-02-14T09:34:30;22.02;;;11.45;;
54428;SDS011;40337;52.978;6.310;2024-02-14T09:36:56;23.45;;;11.55;;
54428;SDS011;40337;52.978;6.310;2024-02-14T09:39:23;20.10;;;10.45;;
54428;SDS011;40337;52.978;6.310;2024-02-14T09:41:54;17.70;;;10.13;;
54428;SDS011;40337;52.978;6.310;2024-02-14T09:44:24;18.88;;;10.88;;
54428;SDS011;40337;52.978;6.310;2024-02-14T09:46:53;18.02;;;10.38;;
54428;SDS011;40337;52.978;6.310;2024-02-14T09:49:20;19.80;;;11.10;;
54428;SDS011;40337;52.978;6.310;2024-02-14T09:51:46;18.13;;;10.82;;
54428;SDS011;40337;52.978;6.310;2024-02-14T09:54:16;13.80;;;8.73;;
54428;SDS011;40337;52.978;6.310;2024-02-14T09:56:43;12.82;;;8.60;;
54428;SDS011;40337;52.978;6.310;2024-02-14T09:59:19;12.50;;;8.48;;
54428;SDS011;40337;52.978;6.310;2024-02-14T10:01:45;11.90;;;8.38;;
54428;SDS011;40337;52.978;6.310;2024-02-14T10:04:13;13.95;;;8.82;;
54428;SDS011;40337;52.978;6.310;2024-02-14T10:06:38;13.75;;;9.25;;
54428;SDS011;40337;52.978;6.310;2024-02-14T10:09:04;15.77;;;9.57;;
54428;SDS011;40337;52.978;6.310;2024-02-14T10:11:30;14.57;;;9.55;;
54428;SDS011;40337;52.978;6.310;2024-02-14T10:13:57;13.30;;;9.15;;
54428;SDS011;40337;52.978;6.310;2024-02-14T10:16:27;15.00;;;10.38;;
54428;SDS011;40337;52.978;6.310;2024-02-14T10:18:53;13.77;;;8.95;;
54428;SDS011;40337;52.978;6.310;2024-02-14T10:21:19;13.45;;;9.13;;
54428;SDS011;40337;52.978;6.310;2024-02-14T10:23:47;14.93;;;9.65;;
54428;SDS011;40337;52.978;6.310;2024-02-14T10:26:17;15.75;;;9.90;;
54428;SDS011;40337;52.978;6.310;2024-02-14T10:28:43;16.50;;;11.50;;
54428;SDS011;40337;52.978;6.310;2024-02-14T10:31:12;15.18;;;11.30;;
54428;SDS011;40337;52.978;6.310;2024-02-14T10:33:38;20.10;;;13.20;;
54428;SDS011;40337;52.978;6.310;2024-02-14T10:36:06;19.35;;;14.07;;
54428;SDS011;40337;52.978;6.310;2024-02-14T10:38:33;18.55;;;13.80;;
54428;SDS011;40337;52.978;6.310;2024-02-14T10:41:00;18.38;;;14.02;;
54428;SDS011;40337;52.978;6.310;2024-02-14T10:43:26;20.13;;;13.80;;
54428;SDS011;40337;52.978;6.310;2024-02-14T10:45:53;18.48;;;13.20;;
54428;SDS011;40337;52.978;6.310;2024-02-14T10:48:20;17.38;;;13.15;;
54428;SDS011;40337;52.978;6.310;2024-02-14T10:50:54;16.17;;;12.57;;
54428;SDS011;40337;52.978;6.310;2024-02-14T10:53:21;15.60;;;12.32;;
54428;SDS011;40337;52.978;6.310;2024-02-14T10:55:49;14.95;;;11.32;;
54428;SDS011;40337;52.978;6.310;2024-02-14T10:58:16;13.93;;;11.23;;
54428;SDS011;40337;52.978;6.310;2024-02-14T11:00:43;15.50;;;11.40;;
54428;SDS011;40337;52.978;6.310;2024-02-14T11:03:10;13.10;;;10.48;;
54428;SDS011;40337;52.978;6.310;2024-02-14T11:05:44;13.65;;;10.30;;
54428;SDS011;40337;52.978;6.310;2024-02-14T11:08:13;12.32;;;10.27;;
54428;SDS011;40337;52.978;6.310;2024-02-14T11:10:40;14.05;;;10.20;;
54428;SDS011;40337;52.978;6.310;2024-02-14T11:13:09;13.57;;;10.68;;
54428;SDS011;40337;52.978;6.310;2024-02-14T11:15:38;13.63;;;11.43;;
54428;SDS011;40337;52.978;6.310;2024-02-14T11:18:05;16.20;;;12.70;;
54428;SDS011;40337;52.978;6.310;2024-02-14T11:20:35;16.40;;;13.30;;
54428;SDS011;40337;52.978;6.310;2024-02-14T11:23:04;20.30;;;15.00;;
54428;SDS011;40337;52.978;6.310;2024-02-14T11:25:32;17.15;;;14.63;;
54428;SDS011;40337;52.978;6.310;2024-02-14T11:28:12;18.92;;;15.02;;
54428;SDS011;40337;52.978;6.310;2024-02-14T11:30:42;19.13;;;14.85;;
54428;SDS011;40337;52.978;6.310;2024-02-14T11:33:30;16.55;;;14.07;;
54428;SDS011;40337;52.978;6.310;2024-02-14T11:35:55;20.40;;;15.50;;
54428;SDS011;40337;52.978;6.310;2024-02-14T11:38:21;17.73;;;14.63;;
54428;SDS011;40337;52.978;6.310;2024-02-14T11:40:54;18.02;;;14.48;;
54428;SDS011;40337;52.978;6.310;2024-02-14T11:43:23;17.45;;;14.13;;
54428;SDS011;40337;52.978;6.310;2024-02-14T11:45:49;18.25;;;14.65;;
54428;SDS011;40337;52.978;6.310;2024-02-14T11:48:16;17.85;;;14.50;;
54428;SDS011;40337;52.978;6.310;2024-02-14T11:50:42;15.85;;;13.55;;
54428;SDS011;40337;52.978;6.310;2024-02-14T11:53:13;17.23;;;14.43;;
54428;SDS011;40337;52.978;6.310;2024-02-14T11:55:43;18.88;;;16.23;;
54428;SDS011;40337;52.978;6.310;2024-02-14T11:58:09;16.30;;;14.60;;
54428;SDS011;40337;52.978;6.310;2024-02-14T12:00:38;17.38;;;15.32;;
54428;SDS011;40337;52.978;6.310;2024-02-14T12:03:18;15.35;;;13.75;;
54428;SDS011;40337;52.978;6.310;2024-02-14T12:05:46;15.45;;;13.63;;
54428;SDS011;40337;52.978;6.310;2024-02-14T12:08:13;14.90;;;13.40;;
54428;SDS011;40337;52.978;6.310;2024-02-14T12:10:42;15.25;;;13.65;;
54428;SDS011;40337;52.978;6.310;2024-02-14T12:13:08;14.65;;;12.80;;
54428;SDS011;40337;52.978;6.310;2024-02-14T12:15:37;13.48;;;12.13;;
54428;SDS011;40337;52.978;6.310;2024-02-14T12:18:09;12.13;;;10.93;;
54428;SDS011;40337;52.978;6.310;2024-02-14T12:20:35;13.07;;;11.48;;
54428;SDS011;40337;52.978;6.310;2024-02-14T12:23:05;11.73;;;10.63;;
54428;SDS011;40337;52.978;6.310;2024-02-14T12:25:31;12.55;;;11.25;;
54428;SDS011;40337;52.978;6.310;2024-02-14T12:27:58;13.00;;;11.13;;
54428;SDS011;40337;52.978;6.310;2024-02-14T12:30:43;13.30;;;11.50;;
54428;SDS011;40337;52.978;6.310;2024-02-14T12:33:15;11.77;;;10.63;;
54428;SDS011;40337;52.978;6.310;2024-02-14T12:35:44;12.55;;;11.25;;
54428;SDS011;40337;52.978;6.310;2024-02-14T12:38:11;13.70;;;11.48;;
54428;SDS011;40337;52.978;6.310;2024-02-14T12:40:38;12.02;;;10.82;;
54428;SDS011;40337;52.978;6.310;2024-02-14T12:43:09;13.45;;;11.07;;
54428;SDS011;40337;52.978;6.310;2024-02-14T12:45:36;12.25;;;10.57;;
54428;SDS011;40337;52.978;6.310;2024-02-14T12:48:02;11.20;;;10.10;;
54428;SDS011;40337;52.978;6.310;2024-02-14T12:50:28;10.88;;;9.75;;
54428;SDS011;40337;52.978;6.310;2024-02-14T12:52:55;11.95;;;10.23;;
54428;SDS011;40337;52.978;6.310;2024-02-14T12:55:20;11.48;;;10.27;;
54428;SDS011;40337;52.978;6.310;2024-02-14T12:57:48;11.38;;;10.18;;
54428;SDS011;40337;52.978;6.310;2024-02-14T13:00:14;13.30;;;10.65;;
54428;SDS011;40337;52.978;6.310;2024-02-14T13:02:40;12.48;;;10.75;;
54428;SDS011;40337;52.978;6.310;2024-02-14T13:05:06;11.55;;;10.45;;
54428;SDS011;40337;52.978;6.310;2024-02-14T13:07:32;11.73;;;10.52;;
54428;SDS011;40337;52.978;6.310;2024-02-14T13:10:01;11.32;;;10.13;;
54428;SDS011;40337;52.978;6.310;2024-02-14T13:12:28;12.20;;;11.00;;
54428;SDS011;40337;52.978;6.310;2024-02-14T13:14:54;13.48;;;11.98;;
54428;SDS011;40337;52.978;6.310;2024-02-14T13:17:20;14.10;;;12.60;;
54428;SDS011;40337;52.978;6.310;2024-02-14T13:19:45;15.48;;;13.88;;
54428;SDS011;40337;52.978;6.310;2024-02-14T13:22:14;15.63;;;14.07;;
54428;SDS011;40337;52.978;6.310;2024-02-14T13:24:40;16.75;;;15.00;;
54428;SDS011;40337;52.978;6.310;2024-02-14T13:27:06;17.05;;;15.35;;
54428;SDS011;40337;52.978;6.310;2024-02-14T13:29:32;17.27;;;15.57;;
54428;SDS011;40337;52.978;6.310;2024-02-14T13:31:59;17.90;;;16.05;;
54428;SDS011;40337;52.978;6.310;2024-02-14T13:34:26;19.60;;;16.75;;
54428;SDS011;40337;52.978;6.310;2024-02-14T13:36:52;17.42;;;15.63;;
54428;SDS011;40337;52.978;6.310;2024-02-14T13:39:18;17.88;;;16.08;;
54428;SDS011;40337;52.978;6.310;2024-02-14T13:41:43;17.00;;;15.23;;
54428;SDS011;40337;52.978;6.310;2024-02-14T13:44:09;17.77;;;15.90;;
54428;SDS011;40337;52.978;6.310;2024-02-14T13:46:40;17.85;;;15.98;;
54428;SDS011;40337;52.978;6.310;2024-02-14T13:49:10;17.52;;;15.65;;
54428;SDS011;40337;52.978;6.310;2024-02-14T13:51:36;15.68;;;13.93;;
54428;SDS011;40337;52.978;6.310;2024-02-14T13:54:02;15.90;;;14.30;;
54428;SDS011;40337;52.978;6.310;2024-02-14T13:56:28;14.77;;;13.27;;
54428;SDS011;40337;52.978;6.310;2024-02-14T13:58:54;15.63;;;13.93;;
54428;SDS011;40337;52.978;6.310;2024-02-14T14:01:20;14.73;;;13.02;;
54428;SDS011;40337;52.978;6.310;2024-02-14T14:03:45;14.23;;;12.43;;
54428;SDS011;40337;52.978;6.310;2024-02-14T14:06:12;13.80;;;12.45;;
54428;SDS011;40337;52.978;6.310;2024-02-14T14:08:38;14.07;;;12.68;;
54428;SDS011;40337;52.978;6.310;2024-02-14T14:11:04;13.75;;;12.35;;
54428;SDS011;40337;52.978;6.310;2024-02-14T14:13:31;13.77;;;12.35;;
54428;SDS011;40337;52.978;6.310;2024-02-14T14:15:58;13.73;;;12.43;;
54428;SDS011;40337;52.978;6.310;2024-02-14T14:18:30;11.88;;;10.48;;
54428;SDS011;40337;52.978;6.310;2024-02-14T14:20:56;11.40;;;10.20;;
54428;SDS011;40337;52.978;6.310;2024-02-14T14:23:21;11.30;;;10.20;;